createdAt,value
2023-02-24T00:02:15.240Z,-0.60
2023-02-24T00:04:44.301Z,-0.60
2023-02-24T00:07:14.731Z,-0.60
2023-02-24T00:09:49.076Z,-0.60
2023-02-24T00:12:17.003Z,-0.50
2023-02-24T00:14:45.372Z,-0.50
2023-02-24T00:17:15.395Z,-0.50
2023-02-24T00:19:42.561Z,-0.50
2023-02-24T00:22:09.689Z,-0.40
2023-02-24T00:24:36.906Z,-0.40
2023-02-24T00:27:11.342Z,-0.50
2023-02-24T00:29:40.110Z,-0.50
2023-02-24T00:32:13.015Z,-0.50
2023-02-24T00:34:40.877Z,-0.50
2023-02-24T00:37:08.447Z,-0.40
2023-02-24T00:39:37.378Z,-0.40
2023-02-24T00:42:06.319Z,-0.40
2023-02-24T00:44:39.462Z,-0.40
2023-02-24T00:47:08.817Z,-0.40
2023-02-24T00:49:49.260Z,-0.40
2023-02-24T00:52:36.318Z,-0.30
2023-02-24T00:55:23.413Z,-0.30
2023-02-24T00:58:03.296Z,-0.30
2023-02-24T01:00:50.485Z,-0.30
2023-02-24T01:03:32.361Z,-0.30
2023-02-24T01:06:22.668Z,-0.30
2023-02-24T01:09:04.317Z,-0.30
2023-02-24T01:12:12.428Z,-0.30
2023-02-24T01:15:00.356Z,-0.30
2023-02-24T01:17:54.380Z,-0.30
2023-02-24T01:20:45.420Z,-0.30
2023-02-24T01:23:26.156Z,-0.30
2023-02-24T01:26:13.331Z,-0.30
2023-02-24T01:28:55.732Z,-0.30
2023-02-24T01:31:49.564Z,-0.30
2023-02-24T01:34:29.451Z,-0.30
2023-02-24T01:37:17.362Z,-0.20
2023-02-24T01:39:57.431Z,-0.20
2023-02-24T01:42:45.328Z,-0.20
2023-02-24T01:45:36.352Z,-0.20
2023-02-24T01:48:17.629Z,-0.20
2023-02-24T01:51:04.368Z,-0.20
2023-02-24T01:53:45.145Z,-0.20
2023-02-24T01:56:32.345Z,-0.20
2023-02-24T01:59:12.582Z,-0.30
2023-02-24T02:02:00.496Z,-0.30
2023-02-24T02:04:46.344Z,-0.20
2023-02-24T02:07:14.301Z,-0.20
2023-02-24T02:09:42.079Z,-0.20
2023-02-24T02:12:09.827Z,-0.20
2023-02-24T02:14:38.892Z,-0.20
2023-02-24T02:17:11.997Z,-0.20
2023-02-24T02:19:55.731Z,-0.20
2023-02-24T02:22:26.704Z,-0.20
2023-02-24T02:25:25.661Z,-0.20
2023-02-24T02:28:05.355Z,-0.10
2023-02-24T02:30:52.794Z,-0.10
2023-02-24T02:33:51.494Z,-0.10
2023-02-24T02:36:34.552Z,-0.10
2023-02-24T02:39:35.403Z,-0.20
2023-02-24T02:42:24.410Z,-0.10
2023-02-24T02:45:20.504Z,-0.10
2023-02-24T02:48:07.515Z,-0.10
2023-02-24T02:50:59.438Z,-0.10
2023-02-24T02:53:50.418Z,-0.10
2023-02-24T02:56:50.406Z,-0.10
2023-02-24T02:59:38.404Z,-0.10
2023-02-24T03:02:18.503Z,-0.10
2023-02-24T03:05:06.535Z,-0.10
2023-02-24T03:07:48.563Z,0.00
2023-02-24T03:10:39.443Z,0.00
2023-02-24T03:13:20.524Z,0.00
2023-02-24T03:16:08.501Z,0.00
2023-02-24T03:19:14.435Z,0.00
2023-02-24T03:21:52.731Z,0.00
2023-02-24T03:24:19.685Z,0.00
2023-02-24T03:26:52.259Z,0.00
2023-02-24T03:29:27.021Z,0.00
2023-02-24T03:32:11.415Z,0.00
2023-02-24T03:34:41.402Z,0.00
2023-02-24T03:37:08.963Z,0.10
2023-02-24T03:39:36.757Z,0.10
2023-02-24T03:42:35.529Z,0.10
2023-02-24T03:45:23.439Z,0.10
2023-02-24T03:48:11.489Z,0.10
2023-02-24T03:50:53.277Z,0.10
2023-02-24T03:54:09.454Z,0.10
2023-02-24T03:56:58.004Z,0.10
2023-02-24T04:00:05.496Z,0.10
2023-02-24T04:02:45.582Z,0.10
2023-02-24T04:05:22.185Z,0.10
2023-02-24T04:07:54.386Z,0.10
2023-02-24T04:10:26.157Z,0.10
2023-02-24T04:12:56.789Z,0.10
2023-02-24T04:15:44.178Z,0.10
2023-02-24T04:18:12.278Z,0.10
2023-02-24T04:20:47.487Z,0.10
2023-02-24T04:23:33.011Z,0.10
2023-02-24T04:26:09.428Z,0.10
2023-02-24T04:28:37.266Z,0.10
2023-02-24T04:31:10.278Z,0.10
2023-02-24T04:33:39.225Z,0.10
2023-02-24T04:36:09.126Z,0.10
2023-02-24T04:38:39.617Z,0.10
2023-02-24T04:41:07.225Z,0.10
2023-02-24T04:43:36.328Z,0.10
2023-02-24T04:46:08.297Z,0.10
2023-02-24T04:48:35.562Z,0.10
2023-02-24T04:51:04.189Z,0.10
2023-02-24T04:53:31.408Z,0.10
2023-02-24T04:56:02.503Z,0.10
2023-02-24T04:58:29.709Z,0.10
2023-02-24T05:00:56.768Z,0.10
2023-02-24T05:03:36.805Z,0.10
2023-02-24T05:06:14.812Z,0.10
2023-02-24T05:08:42.081Z,0.10
2023-02-24T05:11:16.177Z,0.10
2023-02-24T05:13:47.502Z,0.10
2023-02-24T05:16:16.238Z,0.10
2023-02-24T05:18:44.914Z,0.10
2023-02-24T05:21:35.672Z,0.20
2023-02-24T05:24:08.264Z,0.20
2023-02-24T05:26:37.121Z,0.20
2023-02-24T05:29:05.258Z,0.20
2023-02-24T05:31:37.785Z,0.20
2023-02-24T05:34:16.196Z,0.20
2023-02-24T05:36:49.659Z,0.20
2023-02-24T05:39:25.378Z,0.20
2023-02-24T05:41:54.842Z,0.20
2023-02-24T05:44:27.198Z,0.20
2023-02-24T05:46:59.250Z,0.20
2023-02-24T05:49:31.527Z,0.20
2023-02-24T05:52:10.129Z,0.20
2023-02-24T05:54:43.106Z,0.20
2023-02-24T05:57:12.741Z,0.20
2023-02-24T05:59:41.151Z,0.20
2023-02-24T06:02:15.957Z,0.20
2023-02-24T06:04:51.754Z,0.30
2023-02-24T06:07:25.067Z,0.30
2023-02-24T06:09:54.086Z,0.30
2023-02-24T06:12:22.650Z,0.30
2023-02-24T06:14:54.100Z,0.30
2023-02-24T06:17:23.163Z,0.30
2023-02-24T06:19:51.606Z,0.40
2023-02-24T06:22:20.012Z,0.40
2023-02-24T06:24:49.488Z,0.40
2023-02-24T06:27:19.385Z,0.40
2023-02-24T06:29:50.157Z,0.40
2023-02-24T06:32:21.552Z,0.40
2023-02-24T06:34:49.338Z,0.40
2023-02-24T06:37:18.414Z,0.40
2023-02-24T06:39:46.078Z,0.40
2023-02-24T06:42:13.657Z,0.50
2023-02-24T06:44:44.586Z,0.50
2023-02-24T06:47:13.277Z,0.50
2023-02-24T06:49:41.721Z,0.50
2023-02-24T06:52:09.053Z,0.50
2023-02-24T06:54:36.368Z,0.50
2023-02-24T06:57:03.978Z,0.50
2023-02-24T06:59:37.384Z,0.50
2023-02-24T07:02:24.616Z,0.60
2023-02-24T07:05:06.379Z,0.60
2023-02-24T07:07:53.672Z,0.60
2023-02-24T07:10:27.310Z,0.60
2023-02-24T07:12:54.887Z,0.60
2023-02-24T07:15:21.854Z,0.60
2023-02-24T07:17:50.846Z,0.60
2023-02-24T07:20:31.904Z,0.60
2023-02-24T07:22:59.771Z,0.60
2023-02-24T07:25:33.441Z,0.60
2023-02-24T07:28:02.294Z,0.60
2023-02-24T07:30:30.454Z,0.70
2023-02-24T07:32:57.456Z,0.70
2023-02-24T07:35:24.372Z,0.70
2023-02-24T07:37:52.139Z,0.70
2023-02-24T07:40:22.068Z,0.80
2023-02-24T07:42:49.168Z,0.70
2023-02-24T07:45:29.857Z,0.70
2023-02-24T07:48:12.603Z,0.70
2023-02-24T07:50:46.440Z,0.70
2023-02-24T07:53:13.793Z,0.80
2023-02-24T07:55:40.918Z,0.80
2023-02-24T07:58:08.023Z,0.90
2023-02-24T08:01:05.673Z,0.90
2023-02-24T08:03:45.766Z,1.00
2023-02-24T08:06:47.943Z,1.00
2023-02-24T08:10:13.679Z,1.10
2023-02-24T08:13:03.394Z,1.10
2023-02-24T08:15:42.762Z,1.20
2023-02-24T08:18:29.817Z,1.30
2023-02-24T08:21:11.702Z,1.40
2023-02-24T08:24:02.564Z,1.50
2023-02-24T08:26:50.739Z,1.70
2023-02-24T08:30:04.727Z,1.80
2023-02-24T08:32:39.130Z,1.80
2023-02-24T08:35:14.689Z,2.00
2023-02-24T08:37:48.546Z,2.10
2023-02-24T08:40:32.003Z,2.20
2023-02-24T08:42:59.795Z,2.30
2023-02-24T08:45:28.914Z,2.50
2023-02-24T08:48:00.672Z,2.60
2023-02-24T08:50:33.945Z,2.70
2023-02-24T08:53:01.263Z,2.70
2023-02-24T08:55:33.077Z,2.60
2023-02-24T08:58:02.893Z,2.50
2023-02-24T09:00:53.551Z,2.40
2023-02-24T09:03:28.478Z,2.30
2023-02-24T09:06:05.738Z,2.30
2023-02-24T09:08:33.564Z,2.30
2023-02-24T09:11:02.328Z,2.40
2023-02-24T09:13:33.180Z,2.60
2023-02-24T09:16:02.428Z,2.70
2023-02-24T09:18:38.583Z,2.70
2023-02-24T09:21:48.872Z,2.80
2023-02-24T09:24:29.030Z,2.80
2023-02-24T09:27:15.792Z,2.90
2023-02-24T09:30:08.192Z,2.90
2023-02-24T09:32:54.832Z,3.00
2023-02-24T09:35:43.645Z,3.10
2023-02-24T09:38:26.759Z,3.20
2023-02-24T09:41:30.136Z,3.20
2023-02-24T09:44:24.758Z,3.30
2023-02-24T09:47:31.304Z,3.30
2023-02-24T09:50:46.908Z,3.30
2023-02-24T09:53:28.033Z,3.20
2023-02-24T09:56:42.595Z,3.10
2023-02-24T09:59:40.875Z,3.10
2023-02-24T10:02:44.496Z,3.10
2023-02-24T10:05:34.834Z,3.00
2023-02-24T10:08:25.445Z,3.10
2023-02-24T10:11:14.802Z,3.10
2023-02-24T10:14:03.507Z,3.00
2023-02-24T10:16:52.859Z,3.00
2023-02-24T10:19:41.398Z,3.00
2023-02-24T10:22:27.653Z,2.90
2023-02-24T10:25:11.434Z,2.90
2023-02-24T10:27:53.120Z,2.90
2023-02-24T10:30:41.357Z,2.80
2023-02-24T10:33:25.549Z,2.90
2023-02-24T10:36:04.298Z,2.90
2023-02-24T10:38:32.860Z,2.90
2023-02-24T10:41:00.203Z,3.00
2023-02-24T10:43:31.742Z,3.00
2023-02-24T10:46:06.505Z,2.90
2023-02-24T10:48:42.276Z,3.00
2023-02-24T10:51:22.376Z,3.00
2023-02-24T10:54:10.176Z,3.00
2023-02-24T10:57:01.871Z,3.00
2023-02-24T11:00:18.908Z,3.00
2023-02-24T11:03:32.501Z,2.90
2023-02-24T11:06:50.432Z,2.80
2023-02-24T11:09:36.887Z,2.80
2023-02-24T11:12:41.923Z,2.80
2023-02-24T11:15:43.468Z,2.80
2023-02-24T11:18:31.897Z,2.80
2023-02-24T11:21:19.258Z,2.80
2023-02-24T11:24:01.909Z,2.80
2023-02-24T11:26:49.615Z,2.80
2023-02-24T11:29:38.264Z,2.80
2023-02-24T11:32:23.575Z,2.90
2023-02-24T11:35:09.462Z,2.90
2023-02-24T11:37:40.612Z,2.90
2023-02-24T11:40:29.943Z,2.90
2023-02-24T11:43:20.913Z,3.00
2023-02-24T11:46:19.054Z,3.00
2023-02-24T11:49:01.787Z,3.00
2023-02-24T11:51:48.917Z,3.10
2023-02-24T11:54:37.069Z,3.00
2023-02-24T11:57:19.532Z,3.00
2023-02-24T12:00:19.930Z,3.00
2023-02-24T12:03:04.165Z,3.00
2023-02-24T12:05:57.023Z,3.00
2023-02-24T12:08:47.175Z,3.00
2023-02-24T12:11:46.942Z,2.90
2023-02-24T12:14:40.053Z,2.90
2023-02-24T12:17:29.977Z,3.00
2023-02-24T12:21:02.017Z,2.90
2023-02-24T12:23:45.998Z,2.70
2023-02-24T12:26:35.990Z,2.70
2023-02-24T12:29:42.686Z,2.80
2023-02-24T12:32:27.083Z,2.80
2023-02-24T12:35:21.768Z,3.00
2023-02-24T12:38:16.029Z,3.10
2023-02-24T12:41:03.427Z,3.10
2023-02-24T12:43:48.998Z,3.10
2023-02-24T12:46:38.899Z,3.10
2023-02-24T12:49:12.601Z,3.20
2023-02-24T12:51:46.613Z,3.20
2023-02-24T12:54:24.431Z,3.10
2023-02-24T12:57:09.937Z,3.10
2023-02-24T12:59:41.802Z,3.10
2023-02-24T13:02:35.284Z,3.10
2023-02-24T13:05:10.530Z,3.10
2023-02-24T13:07:37.460Z,3.10
2023-02-24T13:10:19.608Z,3.10
2023-02-24T13:12:55.064Z,3.20
2023-02-24T13:15:23.712Z,3.20
2023-02-24T13:17:55.280Z,3.20
2023-02-24T13:20:37.659Z,3.20
2023-02-24T13:23:19.006Z,3.10
2023-02-24T13:25:53.812Z,3.10
2023-02-24T13:28:26.174Z,3.00
2023-02-24T13:31:00.959Z,3.00
2023-02-24T13:33:39.155Z,3.00
2023-02-24T13:36:15.386Z,2.90
2023-02-24T13:38:46.949Z,2.80
2023-02-24T13:41:26.113Z,2.70
2023-02-24T13:43:58.067Z,2.60
2023-02-24T13:46:26.890Z,2.50
2023-02-24T13:49:03.273Z,2.50
2023-02-24T13:51:39.677Z,2.40
2023-02-24T13:54:25.781Z,2.40
2023-02-24T13:57:16.107Z,2.30
2023-02-24T13:59:49.202Z,2.30
2023-02-24T14:02:32.298Z,2.30
2023-02-24T14:05:16.163Z,2.30
2023-02-24T14:08:03.165Z,2.20
2023-02-24T14:10:44.485Z,2.20
2023-02-24T14:13:36.076Z,2.20
2023-02-24T14:16:16.202Z,2.20
2023-02-24T14:19:13.041Z,2.20
2023-02-24T14:22:13.106Z,2.30
2023-02-24T14:25:07.086Z,2.30
2023-02-24T14:27:57.200Z,2.30
2023-02-24T14:30:45.321Z,2.30
2023-02-24T14:33:32.108Z,2.20
2023-02-24T14:36:28.229Z,2.20
2023-02-24T14:39:26.135Z,2.10
2023-02-24T14:42:23.105Z,2.10
2023-02-24T14:45:10.194Z,2.10
2023-02-24T14:47:50.145Z,2.00
2023-02-24T14:50:38.200Z,2.00
2023-02-24T14:53:22.131Z,2.10
2023-02-24T14:56:09.235Z,2.10
2023-02-24T14:58:53.098Z,2.10
2023-02-24T15:01:41.255Z,2.00
2023-02-24T15:04:40.104Z,1.90
2023-02-24T15:07:28.215Z,1.90
2023-02-24T15:10:09.106Z,1.90
2023-02-24T15:13:05.311Z,1.90
2023-02-24T15:15:52.246Z,1.90
2023-02-24T15:18:46.123Z,1.90
2023-02-24T15:21:37.277Z,1.90
2023-02-24T15:24:24.117Z,1.90
2023-02-24T15:27:13.563Z,1.80
2023-02-24T15:29:57.072Z,1.80
2023-02-24T15:32:26.129Z,1.80
2023-02-24T15:34:53.383Z,1.80
2023-02-24T15:37:24.974Z,1.80
2023-02-24T15:39:55.862Z,1.70
2023-02-24T15:42:33.812Z,1.70
2023-02-24T15:45:23.320Z,1.70
2023-02-24T15:47:56.922Z,1.70
2023-02-24T15:50:24.041Z,1.70
2023-02-24T15:52:51.142Z,1.70
2023-02-24T15:55:19.066Z,1.70
2023-02-24T15:57:46.271Z,1.80
2023-02-24T16:00:15.538Z,1.70
2023-02-24T16:02:42.701Z,1.70
2023-02-24T16:05:12.645Z,1.70
2023-02-24T16:07:39.833Z,1.80
2023-02-24T16:10:07.067Z,1.80
2023-02-24T16:12:35.436Z,1.70
2023-02-24T16:15:06.026Z,1.80
2023-02-24T16:17:49.166Z,1.80
2023-02-24T16:20:46.278Z,1.80
2023-02-24T16:23:40.359Z,1.70
2023-02-24T16:26:25.549Z,1.70
2023-02-24T16:29:11.769Z,1.70
2023-02-24T16:31:58.460Z,1.70
2023-02-24T16:34:45.389Z,1.80
2023-02-24T16:37:29.240Z,1.70
2023-02-24T16:40:24.470Z,1.70
2023-02-24T16:43:04.231Z,1.70
2023-02-24T16:45:51.327Z,1.70
2023-02-24T16:48:33.195Z,1.70
2023-02-24T16:51:20.431Z,1.70
2023-02-24T16:54:00.218Z,1.60
2023-02-24T16:56:47.236Z,1.70
2023-02-24T16:59:27.488Z,1.70
2023-02-24T17:02:19.340Z,1.70
2023-02-24T17:04:59.360Z,1.70
2023-02-24T17:07:46.247Z,1.70
2023-02-24T17:10:26.474Z,1.70
2023-02-24T17:13:13.303Z,1.70
2023-02-24T17:15:57.567Z,1.60
2023-02-24T17:18:51.294Z,1.70
2023-02-24T17:21:31.483Z,1.70
2023-02-24T17:24:18.251Z,1.70
2023-02-24T17:27:00.001Z,1.70
2023-02-24T17:29:47.354Z,1.70
2023-02-24T17:32:34.963Z,1.70
2023-02-24T17:35:37.428Z,1.70
2023-02-24T17:38:26.336Z,1.70
2023-02-24T17:41:08.309Z,1.60
2023-02-24T17:43:57.378Z,1.60
2023-02-24T17:46:37.407Z,1.60
2023-02-24T17:49:24.421Z,1.60
2023-02-24T17:52:06.240Z,1.50
2023-02-24T17:54:46.496Z,1.50
2023-02-24T17:57:34.268Z,1.50
2023-02-24T18:00:15.707Z,1.50
2023-02-24T18:03:03.518Z,1.50
2023-02-24T18:05:57.361Z,1.50
2023-02-24T18:08:45.405Z,1.50
2023-02-24T18:11:26.282Z,1.60
2023-02-24T18:14:13.475Z,1.60
2023-02-24T18:16:53.330Z,1.50
2023-02-24T18:19:47.389Z,1.50
2023-02-24T18:22:34.408Z,1.50
2023-02-24T18:25:14.402Z,1.40
2023-02-24T18:28:01.291Z,1.30
2023-02-24T18:30:41.492Z,1.30
2023-02-24T18:33:28.422Z,1.30
2023-02-24T18:36:08.472Z,1.30
2023-02-24T18:38:55.298Z,1.20
2023-02-24T18:41:35.415Z,1.20
2023-02-24T18:44:22.380Z,1.20
2023-02-24T18:47:02.959Z,1.20
2023-02-24T18:49:49.324Z,1.20
2023-02-24T18:52:29.436Z,1.30
2023-02-24T18:55:16.352Z,1.30
2023-02-24T18:57:56.410Z,1.30
2023-02-24T19:00:43.356Z,1.30
2023-02-24T19:03:23.445Z,1.30
2023-02-24T19:06:10.386Z,1.30
2023-02-24T19:08:50.944Z,1.40
2023-02-24T19:11:39.746Z,1.40
2023-02-24T19:14:19.602Z,1.40
2023-02-24T19:17:08.336Z,1.40
2023-02-24T19:20:02.444Z,1.40
2023-02-24T19:22:51.512Z,1.40
2023-02-24T19:25:38.405Z,1.40
2023-02-24T19:28:18.822Z,1.40
2023-02-24T19:31:05.414Z,1.40
2023-02-24T19:33:52.832Z,1.40
2023-02-24T19:36:33.433Z,1.40
2023-02-24T19:39:14.429Z,1.40
2023-02-24T19:42:01.383Z,1.40
2023-02-24T19:44:48.542Z,1.40
2023-02-24T19:47:28.378Z,1.40
2023-02-24T19:50:16.754Z,1.40
2023-02-24T19:52:56.422Z,1.40
2023-02-24T19:55:43.491Z,1.30
2023-02-24T19:58:23.430Z,1.30
2023-02-24T20:01:20.558Z,1.40
2023-02-24T20:04:02.459Z,1.40
2023-02-24T20:06:49.532Z,1.40
2023-02-24T20:09:29.396Z,1.40
2023-02-24T20:12:16.526Z,1.40
2023-02-24T20:14:57.416Z,1.40
2023-02-24T20:17:44.596Z,1.40
2023-02-24T20:20:31.482Z,1.40
2023-02-24T20:23:11.555Z,1.40
2023-02-24T20:25:58.466Z,1.40
2023-02-24T20:28:45.553Z,1.50
2023-02-24T20:31:32.708Z,1.50
2023-02-24T20:34:12.510Z,1.40
2023-02-24T20:36:59.571Z,1.40
2023-02-24T20:39:40.443Z,1.40
2023-02-24T20:42:27.526Z,1.40
2023-02-24T20:45:07.457Z,1.40
2023-02-24T20:47:54.648Z,1.40
2023-02-24T20:50:34.473Z,1.40
2023-02-24T20:53:21.616Z,1.40
2023-02-24T20:56:06.457Z,1.40
2023-02-24T20:58:53.648Z,1.30
2023-02-24T21:01:34.454Z,1.30
2023-02-24T21:04:15.431Z,1.30
2023-02-24T21:07:02.524Z,1.30
2023-02-24T21:09:49.945Z,1.30
2023-02-24T21:12:30.553Z,1.30
2023-02-24T21:15:17.567Z,1.30
2023-02-24T21:17:57.593Z,1.30
2023-02-24T21:20:44.717Z,1.40
2023-02-24T21:23:24.538Z,1.40
2023-02-24T21:26:11.585Z,1.40
2023-02-24T21:28:56.948Z,1.40
2023-02-24T21:31:37.939Z,1.40
2023-02-24T21:34:25.452Z,1.40
2023-02-24T21:37:14.601Z,1.40
2023-02-24T21:39:55.530Z,1.40
2023-02-24T21:42:51.472Z,1.50
2023-02-24T21:45:39.884Z,1.40
2023-02-24T21:48:26.567Z,1.50
2023-02-24T21:51:14.648Z,1.60
2023-02-24T21:53:56.483Z,1.50
2023-02-24T21:56:43.728Z,1.50
2023-02-24T21:59:23.582Z,1.50
2023-02-24T22:02:10.642Z,1.50
2023-02-24T22:04:51.524Z,1.50
2023-02-24T22:07:38.632Z,1.50
2023-02-24T22:10:22.539Z,1.50
2023-02-24T22:13:03.032Z,1.50
2023-02-24T22:15:52.073Z,1.50
2023-02-24T22:18:45.570Z,1.50
2023-02-24T22:21:33.530Z,1.50
2023-02-24T22:24:13.716Z,1.50
2023-02-24T22:27:00.565Z,1.50
2023-02-24T22:29:42.806Z,1.50
2023-02-24T22:32:29.675Z,1.50
2023-02-24T22:35:09.760Z,1.60
2023-02-24T22:37:56.589Z,1.60
2023-02-24T22:40:43.549Z,1.60
2023-02-24T22:43:23.787Z,1.50
2023-02-24T22:46:15.688Z,1.50
2023-02-24T22:49:03.511Z,1.50
2023-02-24T22:51:43.566Z,1.50
2023-02-24T22:54:30.719Z,1.50
2023-02-24T22:57:10.555Z,1.50
2023-02-24T22:59:50.915Z,1.50
2023-02-24T23:02:37.565Z,1.50
2023-02-24T23:05:25.702Z,1.50
2023-02-24T23:08:05.585Z,1.50
2023-02-24T23:10:52.736Z,1.50
2023-02-24T23:13:32.635Z,1.40
2023-02-24T23:16:20.979Z,1.40
2023-02-24T23:19:02.662Z,1.40
2023-02-24T23:21:53.843Z,1.40
2023-02-24T23:24:33.595Z,1.40
2023-02-24T23:27:23.542Z,1.40
2023-02-24T23:30:04.609Z,1.50
2023-02-24T23:32:51.808Z,1.50
2023-02-24T23:35:31.613Z,1.60
2023-02-24T23:38:11.847Z,1.60
2023-02-24T23:40:52.604Z,1.60
2023-02-24T23:43:39.749Z,1.60
2023-02-24T23:46:26.784Z,1.60
2023-02-24T23:49:07.630Z,1.60
2023-02-24T23:51:54.741Z,1.60
2023-02-24T23:54:34.652Z,1.50
2023-02-24T23:57:21.702Z,1.50
